sensor_id;sensor_type;location;lat;lon;timestamp;P1;durP1;ratioP1;P2;durP2;ratioP2
34134;SDS011;20410;55.578;12.968;2023-04-03T00:01:21;9.60;;;3.20;;
34134;SDS011;20410;55.578;12.968;2023-04-03T00:03:47;5.47;;;2.50;;
34134;SDS011;20410;55.578;12.968;2023-04-03T00:06:25;4.27;;;2.60;;
34134;SDS011;20410;55.578;12.968;2023-04-03T00:08:51;6.47;;;2.47;;
34134;SDS011;20410;55.578;12.968;2023-04-03T00:11:20;7.47;;;2.50;;
34134;SDS011;20410;55.578;12.968;2023-04-03T00:13:46;3.70;;;2.77;;
34134;SDS011;20410;55.578;12.968;2023-04-03T00:16:12;3.73;;;2.47;;
34134;SDS011;20410;55.578;12.968;2023-04-03T00:19:07;3.00;;;2.23;;
34134;SDS011;20410;55.578;12.968;2023-04-03T00:21:53;6.30;;;2.43;;
34134;SDS011;20410;55.578;12.968;2023-04-03T00:24:19;4.30;;;2.20;;
34134;SDS011;20410;55.578;12.968;2023-04-03T00:26:44;3.07;;;2.00;;
34134;SDS011;20410;55.578;12.968;2023-04-03T00:29:10;4.83;;;2.20;;
34134;SDS011;20410;55.578;12.968;2023-04-03T00:31:38;4.67;;;1.90;;
34134;SDS011;20410;55.578;12.968;2023-04-03T00:34:05;4.40;;;1.80;;
34134;SDS011;20410;55.578;12.968;2023-04-03T00:36:30;4.37;;;2.13;;
34134;SDS011;20410;55.578;12.968;2023-04-03T00:38:59;3.33;;;2.07;;
34134;SDS011;20410;55.578;12.968;2023-04-03T00:41:28;3.07;;;1.83;;
34134;SDS011;20410;55.578;12.968;2023-04-03T00:43:54;4.03;;;1.83;;
34134;SDS011;20410;55.578;12.968;2023-04-03T00:46:44;3.73;;;2.07;;
34134;SDS011;20410;55.578;12.968;2023-04-03T00:49:12;7.00;;;2.57;;
34134;SDS011;20410;55.578;12.968;2023-04-03T00:51:38;4.70;;;2.10;;
34134;SDS011;20410;55.578;12.968;2023-04-03T00:54:05;4.83;;;2.53;;
34134;SDS011;20410;55.578;12.968;2023-04-03T00:56:35;4.33;;;2.40;;
34134;SDS011;20410;55.578;12.968;2023-04-03T01:01:59;3.80;;;2.33;;
34134;SDS011;20410;55.578;12.968;2023-04-03T01:04:29;5.17;;;2.20;;
34134;SDS011;20410;55.578;12.968;2023-04-03T01:06:59;3.80;;;2.27;;
34134;SDS011;20410;55.578;12.968;2023-04-03T01:09:29;3.77;;;2.20;;
34134;SDS011;20410;55.578;12.968;2023-04-03T01:12:12;2.90;;;2.10;;
34134;SDS011;20410;55.578;12.968;2023-04-03T01:14:50;2.47;;;2.07;;
34134;SDS011;20410;55.578;12.968;2023-04-03T01:20:10;4.93;;;2.73;;
34134;SDS011;20410;55.578;12.968;2023-04-03T01:25:34;5.60;;;2.20;;
34134;SDS011;20410;55.578;12.968;2023-04-03T01:28:12;5.17;;;2.70;;
34134;SDS011;20410;55.578;12.968;2023-04-03T01:31:10;5.03;;;2.50;;
34134;SDS011;20410;55.578;12.968;2023-04-03T01:34:35;5.40;;;2.67;;
34134;SDS011;20410;55.578;12.968;2023-04-03T01:37:01;5.97;;;2.63;;
34134;SDS011;20410;55.578;12.968;2023-04-03T01:39:27;8.57;;;3.80;;
34134;SDS011;20410;55.578;12.968;2023-04-03T01:41:53;9.10;;;4.83;;
34134;SDS011;20410;55.578;12.968;2023-04-03T01:44:19;9.40;;;4.93;;
34134;SDS011;20410;55.578;12.968;2023-04-03T01:46:44;16.73;;;8.27;;
34134;SDS011;20410;55.578;12.968;2023-04-03T01:49:11;17.13;;;7.63;;
34134;SDS011;20410;55.578;12.968;2023-04-03T01:51:36;14.73;;;7.47;;
34134;SDS011;20410;55.578;12.968;2023-04-03T01:54:11;15.53;;;7.23;;
34134;SDS011;20410;55.578;12.968;2023-04-03T01:56:37;20.20;;;8.07;;
34134;SDS011;20410;55.578;12.968;2023-04-03T01:59:15;20.90;;;9.33;;
34134;SDS011;20410;55.578;12.968;2023-04-03T02:01:53;20.20;;;9.43;;
34134;SDS011;20410;55.578;12.968;2023-04-03T02:04:18;20.97;;;7.30;;
34134;SDS011;20410;55.578;12.968;2023-04-03T02:07:42;16.40;;;8.03;;
34134;SDS011;20410;55.578;12.968;2023-04-03T02:09:44;19.10;;;7.20;;
34134;SDS011;20410;55.578;12.968;2023-04-03T02:12:36;21.83;;;7.53;;
34134;SDS011;20410;55.578;12.968;2023-04-03T02:15:05;20.63;;;7.60;;
34134;SDS011;20410;55.578;12.968;2023-04-03T02:17:40;22.23;;;7.93;;
34134;SDS011;20410;55.578;12.968;2023-04-03T02:20:06;19.00;;;7.53;;
34134;SDS011;20410;55.578;12.968;2023-04-03T02:22:35;16.83;;;7.43;;
34134;SDS011;20410;55.578;12.968;2023-04-03T02:25:47;14.00;;;6.63;;
34134;SDS011;20410;55.578;12.968;2023-04-03T02:28:14;14.77;;;6.90;;
34134;SDS011;20410;55.578;12.968;2023-04-03T02:30:39;19.60;;;7.60;;
34134;SDS011;20410;55.578;12.968;2023-04-03T02:33:19;13.63;;;6.80;;
34134;SDS011;20410;55.578;12.968;2023-04-03T02:35:45;14.90;;;6.47;;
34134;SDS011;20410;55.578;12.968;2023-04-03T02:38:18;19.37;;;7.17;;
34134;SDS011;20410;55.578;12.968;2023-04-03T02:40:50;13.90;;;6.53;;
34134;SDS011;20410;55.578;12.968;2023-04-03T02:43:19;13.90;;;6.53;;
34134;SDS011;20410;55.578;12.968;2023-04-03T02:45:45;12.17;;;5.40;;
34134;SDS011;20410;55.578;12.968;2023-04-03T02:48:13;11.03;;;4.80;;
34134;SDS011;20410;55.578;12.968;2023-04-03T02:50:45;10.07;;;3.83;;
34134;SDS011;20410;55.578;12.968;2023-04-03T02:53:10;10.53;;;4.33;;
34134;SDS011;20410;55.578;12.968;2023-04-03T02:55:42;7.43;;;3.70;;
34134;SDS011;20410;55.578;12.968;2023-04-03T02:58:07;6.53;;;3.60;;
34134;SDS011;20410;55.578;12.968;2023-04-03T03:00:50;8.60;;;3.67;;
34134;SDS011;20410;55.578;12.968;2023-04-03T03:03:18;6.13;;;3.63;;
34134;SDS011;20410;55.578;12.968;2023-04-03T03:06:06;5.47;;;3.10;;
34134;SDS011;20410;55.578;12.968;2023-04-03T03:40:11;4.57;;;2.47;;
34134;SDS011;20410;55.578;12.968;2023-04-03T03:56:45;6.63;;;2.30;;
34134;SDS011;20410;55.578;12.968;2023-04-03T03:59:50;7.20;;;2.67;;
34134;SDS011;20410;55.578;12.968;2023-04-03T04:16:38;5.30;;;2.50;;
34134;SDS011;20410;55.578;12.968;2023-04-03T04:19:54;5.57;;;3.00;;
34134;SDS011;20410;55.578;12.968;2023-04-03T04:22:31;5.57;;;2.50;;
34134;SDS011;20410;55.578;12.968;2023-04-03T04:24:59;6.37;;;2.57;;
34134;SDS011;20410;55.578;12.968;2023-04-03T04:27:41;4.03;;;2.13;;
34134;SDS011;20410;55.578;12.968;2023-04-03T04:30:07;10.03;;;2.40;;
34134;SDS011;20410;55.578;12.968;2023-04-03T04:32:33;5.90;;;2.10;;
34134;SDS011;20410;55.578;12.968;2023-04-03T04:34:59;5.23;;;2.33;;
34134;SDS011;20410;55.578;12.968;2023-04-03T04:37:25;5.73;;;2.30;;
34134;SDS011;20410;55.578;12.968;2023-04-03T04:39:51;12.47;;;2.93;;
34134;SDS011;20410;55.578;12.968;2023-04-03T04:42:16;9.90;;;2.30;;
34134;SDS011;20410;55.578;12.968;2023-04-03T04:44:50;6.53;;;2.60;;
34134;SDS011;20410;55.578;12.968;2023-04-03T04:47:17;3.67;;;2.43;;
34134;SDS011;20410;55.578;12.968;2023-04-03T04:49:49;4.17;;;2.00;;
34134;SDS011;20410;55.578;12.968;2023-04-03T04:52:15;6.93;;;2.03;;
34134;SDS011;20410;55.578;12.968;2023-04-03T04:54:40;3.23;;;1.90;;
34134;SDS011;20410;55.578;12.968;2023-04-03T04:57:06;13.17;;;2.77;;
34134;SDS011;20410;55.578;12.968;2023-04-03T04:59:37;4.60;;;1.87;;
34134;SDS011;20410;55.578;12.968;2023-04-03T05:02:03;11.83;;;2.30;;
34134;SDS011;20410;55.578;12.968;2023-04-03T05:04:29;6.10;;;2.40;;
34134;SDS011;20410;55.578;12.968;2023-04-03T05:06:55;6.43;;;2.00;;
34134;SDS011;20410;55.578;12.968;2023-04-03T05:09:21;4.27;;;1.87;;
34134;SDS011;20410;55.578;12.968;2023-04-03T05:11:47;4.90;;;2.10;;
34134;SDS011;20410;55.578;12.968;2023-04-03T05:14:12;7.97;;;2.50;;
34134;SDS011;20410;55.578;12.968;2023-04-03T05:16:38;7.33;;;2.87;;
34134;SDS011;20410;55.578;12.968;2023-04-03T05:19:04;7.67;;;2.40;;
34134;SDS011;20410;55.578;12.968;2023-04-03T05:21:30;6.93;;;2.43;;
34134;SDS011;20410;55.578;12.968;2023-04-03T05:24:00;8.13;;;2.70;;
34134;SDS011;20410;55.578;12.968;2023-04-03T05:26:35;4.60;;;2.17;;
34134;SDS011;20410;55.578;12.968;2023-04-03T05:29:00;6.33;;;2.30;;
34134;SDS011;20410;55.578;12.968;2023-04-03T05:31:49;6.70;;;2.15;;
34134;SDS011;20410;55.578;12.968;2023-04-03T05:34:15;5.33;;;2.13;;
34134;SDS011;20410;55.578;12.968;2023-04-03T05:36:41;6.80;;;2.40;;
34134;SDS011;20410;55.578;12.968;2023-04-03T05:39:16;7.60;;;2.40;;
34134;SDS011;20410;55.578;12.968;2023-04-03T05:41:42;5.33;;;2.17;;
34134;SDS011;20410;55.578;12.968;2023-04-03T05:44:08;6.33;;;2.30;;
34134;SDS011;20410;55.578;12.968;2023-04-03T05:46:36;8.03;;;2.30;;
34134;SDS011;20410;55.578;12.968;2023-04-03T05:49:13;8.27;;;2.20;;
34134;SDS011;20410;55.578;12.968;2023-04-03T05:51:48;10.53;;;2.13;;
34134;SDS011;20410;55.578;12.968;2023-04-03T05:54:24;3.43;;;1.77;;
34134;SDS011;20410;55.578;12.968;2023-04-03T05:56:51;3.00;;;1.93;;
34134;SDS011;20410;55.578;12.968;2023-04-03T05:59:17;2.87;;;2.03;;
34134;SDS011;20410;55.578;12.968;2023-04-03T06:02:03;4.70;;;1.80;;
34134;SDS011;20410;55.578;12.968;2023-04-03T06:04:32;4.90;;;1.80;;
34134;SDS011;20410;55.578;12.968;2023-04-03T06:06:58;2.77;;;1.90;;
34134;SDS011;20410;55.578;12.968;2023-04-03T06:09:25;8.43;;;2.00;;
34134;SDS011;20410;55.578;12.968;2023-04-03T06:12:23;4.90;;;2.10;;
34134;SDS011;20410;55.578;12.968;2023-04-03T06:14:49;11.53;;;2.57;;
34134;SDS011;20410;55.578;12.968;2023-04-03T06:17:15;2.37;;;1.80;;
34134;SDS011;20410;55.578;12.968;2023-04-03T06:19:43;3.43;;;1.77;;
34134;SDS011;20410;55.578;12.968;2023-04-03T06:22:09;3.27;;;2.00;;
34134;SDS011;20410;55.578;12.968;2023-04-03T06:24:36;5.80;;;2.20;;
34134;SDS011;20410;55.578;12.968;2023-04-03T06:27:03;5.20;;;1.87;;
34134;SDS011;20410;55.578;12.968;2023-04-03T06:29:29;4.83;;;1.90;;
34134;SDS011;20410;55.578;12.968;2023-04-03T06:31:55;7.73;;;2.20;;
34134;SDS011;20410;55.578;12.968;2023-04-03T06:34:24;3.13;;;2.50;;
34134;SDS011;20410;55.578;12.968;2023-04-03T06:37:21;6.10;;;2.20;;
34134;SDS011;20410;55.578;12.968;2023-04-03T06:39:47;3.00;;;1.93;;
34134;SDS011;20410;55.578;12.968;2023-04-03T06:42:13;2.53;;;1.70;;
34134;SDS011;20410;55.578;12.968;2023-04-03T06:44:41;6.90;;;2.43;;
34134;SDS011;20410;55.578;12.968;2023-04-03T06:47:09;3.40;;;2.13;;
34134;SDS011;20410;55.578;12.968;2023-04-03T06:49:36;9.23;;;2.20;;
34134;SDS011;20410;55.578;12.968;2023-04-03T06:52:02;3.30;;;1.97;;
34134;SDS011;20410;55.578;12.968;2023-04-03T06:54:28;4.00;;;2.27;;
34134;SDS011;20410;55.578;12.968;2023-04-03T06:56:53;3.40;;;2.00;;
34134;SDS011;20410;55.578;12.968;2023-04-03T06:59:19;5.30;;;2.17;;
34134;SDS011;20410;55.578;12.968;2023-04-03T07:01:45;4.70;;;1.80;;
34134;SDS011;20410;55.578;12.968;2023-04-03T07:04:11;4.37;;;2.07;;
34134;SDS011;20410;55.578;12.968;2023-04-03T07:06:36;3.60;;;1.70;;
34134;SDS011;20410;55.578;12.968;2023-04-03T07:09:02;2.20;;;1.80;;
34134;SDS011;20410;55.578;12.968;2023-04-03T07:11:28;3.97;;;1.90;;
34134;SDS011;20410;55.578;12.968;2023-04-03T07:13:53;3.23;;;1.77;;
34134;SDS011;20410;55.578;12.968;2023-04-03T07:16:19;5.27;;;1.97;;
34134;SDS011;20410;55.578;12.968;2023-04-03T07:18:48;3.87;;;1.60;;
34134;SDS011;20410;55.578;12.968;2023-04-03T07:21:14;2.37;;;1.83;;
34134;SDS011;20410;55.578;12.968;2023-04-03T07:23:40;2.53;;;2.30;;
34134;SDS011;20410;55.578;12.968;2023-04-03T07:26:05;3.93;;;1.70;;
34134;SDS011;20410;55.578;12.968;2023-04-03T07:28:32;3.10;;;1.97;;
34134;SDS011;20410;55.578;12.968;2023-04-03T07:30:59;3.00;;;1.80;;
34134;SDS011;20410;55.578;12.968;2023-04-03T07:33:28;2.90;;;1.83;;
34134;SDS011;20410;55.578;12.968;2023-04-03T07:35:53;2.77;;;2.00;;
34134;SDS011;20410;55.578;12.968;2023-04-03T07:38:19;3.13;;;1.83;;
34134;SDS011;20410;55.578;12.968;2023-04-03T07:40:45;3.37;;;1.87;;
34134;SDS011;20410;55.578;12.968;2023-04-03T07:43:12;2.43;;;1.90;;
34134;SDS011;20410;55.578;12.968;2023-04-03T07:45:39;2.37;;;1.90;;
34134;SDS011;20410;55.578;12.968;2023-04-03T07:48:05;4.77;;;2.00;;
34134;SDS011;20410;55.578;12.968;2023-04-03T07:50:31;4.60;;;2.37;;
34134;SDS011;20410;55.578;12.968;2023-04-03T07:52:57;2.87;;;1.60;;
34134;SDS011;20410;55.578;12.968;2023-04-03T07:55:23;3.17;;;1.90;;
34134;SDS011;20410;55.578;12.968;2023-04-03T07:57:49;4.20;;;2.53;;
34134;SDS011;20410;55.578;12.968;2023-04-03T08:00:15;2.00;;;1.80;;
34134;SDS011;20410;55.578;12.968;2023-04-03T08:02:42;4.73;;;1.90;;
34134;SDS011;20410;55.578;12.968;2023-04-03T08:05:09;8.17;;;1.90;;
34134;SDS011;20410;55.578;12.968;2023-04-03T08:07:36;4.57;;;2.30;;
34134;SDS011;20410;55.578;12.968;2023-04-03T08:10:03;4.13;;;2.40;;
34134;SDS011;20410;55.578;12.968;2023-04-03T08:12:29;6.50;;;2.00;;
34134;SDS011;20410;55.578;12.968;2023-04-03T08:14:56;5.67;;;2.33;;
34134;SDS011;20410;55.578;12.968;2023-04-03T08:17:22;3.57;;;2.00;;
34134;SDS011;20410;55.578;12.968;2023-04-03T08:19:48;2.57;;;1.70;;
34134;SDS011;20410;55.578;12.968;2023-04-03T08:22:13;5.13;;;2.43;;
34134;SDS011;20410;55.578;12.968;2023-04-03T08:24:39;4.20;;;1.83;;
34134;SDS011;20410;55.578;12.968;2023-04-03T08:27:05;5.23;;;2.77;;
34134;SDS011;20410;55.578;12.968;2023-04-03T08:29:30;2.90;;;1.67;;
34134;SDS011;20410;55.578;12.968;2023-04-03T08:31:56;2.40;;;2.20;;
34134;SDS011;20410;55.578;12.968;2023-04-03T08:34:22;4.10;;;2.10;;
34134;SDS011;20410;55.578;12.968;2023-04-03T08:36:47;5.67;;;2.07;;
34134;SDS011;20410;55.578;12.968;2023-04-03T08:39:13;6.37;;;2.17;;
34134;SDS011;20410;55.578;12.968;2023-04-03T08:41:39;3.70;;;2.37;;
34134;SDS011;20410;55.578;12.968;2023-04-03T08:50:02;6.10;;;1.97;;
34134;SDS011;20410;55.578;12.968;2023-04-03T08:52:43;3.67;;;1.77;;
34134;SDS011;20410;55.578;12.968;2023-04-03T08:55:19;5.30;;;2.20;;
34134;SDS011;20410;55.578;12.968;2023-04-03T09:00:51;2.33;;;1.67;;
34134;SDS011;20410;55.578;12.968;2023-04-03T09:03:24;3.10;;;2.00;;
34134;SDS011;20410;55.578;12.968;2023-04-03T09:08:49;5.00;;;2.60;;
34134;SDS011;20410;55.578;12.968;2023-04-03T09:11:17;5.57;;;2.30;;
34134;SDS011;20410;55.578;12.968;2023-04-03T09:16:54;2.57;;;2.17;;
34134;SDS011;20410;55.578;12.968;2023-04-03T09:24:45;2.97;;;2.00;;
34134;SDS011;20410;55.578;12.968;2023-04-03T09:27:15;2.23;;;2.00;;
34134;SDS011;20410;55.578;12.968;2023-04-03T09:29:43;3.83;;;2.30;;
34134;SDS011;20410;55.578;12.968;2023-04-03T09:32:22;2.43;;;1.60;;
34134;SDS011;20410;55.578;12.968;2023-04-03T09:34:50;3.10;;;2.27;;
34134;SDS011;20410;55.578;12.968;2023-04-03T09:40:27;2.83;;;1.90;;
34134;SDS011;20410;55.578;12.968;2023-04-03T09:42:59;2.87;;;1.67;;
34134;SDS011;20410;55.578;12.968;2023-04-03T09:45:28;5.67;;;1.90;;
34134;SDS011;20410;55.578;12.968;2023-04-03T09:53:27;2.90;;;1.90;;
34134;SDS011;20410;55.578;12.968;2023-04-03T09:58:44;1.77;;;1.60;;
34134;SDS011;20410;55.578;12.968;2023-04-03T10:01:38;4.07;;;2.27;;
34134;SDS011;20410;55.578;12.968;2023-04-03T10:04:18;3.37;;;2.43;;
34134;SDS011;20410;55.578;12.968;2023-04-03T10:06:45;3.40;;;1.90;;
34134;SDS011;20410;55.578;12.968;2023-04-03T10:09:17;5.87;;;2.03;;
34134;SDS011;20410;55.578;12.968;2023-04-03T10:14:36;4.73;;;2.27;;
34134;SDS011;20410;55.578;12.968;2023-04-03T10:19:47;2.67;;;2.03;;
34134;SDS011;20410;55.578;12.968;2023-04-03T10:22:40;2.37;;;1.60;;
34134;SDS011;20410;55.578;12.968;2023-04-03T10:25:30;2.83;;;2.00;;
34134;SDS011;20410;55.578;12.968;2023-04-03T10:28:00;3.00;;;1.80;;
34134;SDS011;20410;55.578;12.968;2023-04-03T10:36:33;4.27;;;1.93;;
34134;SDS011;20410;55.578;12.968;2023-04-03T10:39:30;2.23;;;1.70;;
34134;SDS011;20410;55.578;12.968;2023-04-03T10:44:48;1.87;;;1.70;;
34134;SDS011;20410;55.578;12.968;2023-04-03T10:47:18;2.33;;;1.90;;
34134;SDS011;20410;55.578;12.968;2023-04-03T10:52:37;6.40;;;1.87;;
34134;SDS011;20410;55.578;12.968;2023-04-03T10:57:38;4.40;;;2.17;;
34134;SDS011;20410;55.578;12.968;2023-04-03T11:00:19;2.13;;;1.70;;
34134;SDS011;20410;55.578;12.968;2023-04-03T11:02:51;2.30;;;1.83;;
34134;SDS011;20410;55.578;12.968;2023-04-03T11:05:35;3.10;;;1.63;;
34134;SDS011;20410;55.578;12.968;2023-04-03T11:08:02;2.97;;;2.27;;
34134;SDS011;20410;55.578;12.968;2023-04-03T11:10:39;3.20;;;2.00;;
34134;SDS011;20410;55.578;12.968;2023-04-03T11:16:12;2.17;;;2.00;;
34134;SDS011;20410;55.578;12.968;2023-04-03T11:21:37;2.63;;;1.93;;
34134;SDS011;20410;55.578;12.968;2023-04-03T11:24:13;2.87;;;1.80;;
34134;SDS011;20410;55.578;12.968;2023-04-03T11:26:47;4.80;;;1.90;;
34134;SDS011;20410;55.578;12.968;2023-04-03T11:29:17;2.43;;;2.00;;
34134;SDS011;20410;55.578;12.968;2023-04-03T11:32:02;2.57;;;1.63;;
34134;SDS011;20410;55.578;12.968;2023-04-03T11:34:36;3.17;;;1.80;;
34134;SDS011;20410;55.578;12.968;2023-04-03T11:37:28;3.90;;;2.50;;
34134;SDS011;20410;55.578;12.968;2023-04-03T11:40:02;3.53;;;1.80;;
34134;SDS011;20410;55.578;12.968;2023-04-03T11:42:39;2.77;;;1.80;;
34134;SDS011;20410;55.578;12.968;2023-04-03T11:52:56;2.50;;;2.10;;
34134;SDS011;20410;55.578;12.968;2023-04-03T12:05:58;3.80;;;2.00;;
34134;SDS011;20410;55.578;12.968;2023-04-03T12:21:21;2.17;;;1.90;;
34134;SDS011;20410;55.578;12.968;2023-04-03T12:23:56;2.67;;;1.87;;
34134;SDS011;20410;55.578;12.968;2023-04-03T12:26:27;4.33;;;2.07;;
34134;SDS011;20410;55.578;12.968;2023-04-03T12:29:02;3.10;;;1.83;;
34134;SDS011;20410;55.578;12.968;2023-04-03T12:31:44;4.63;;;2.10;;
34134;SDS011;20410;55.578;12.968;2023-04-03T12:42:24;4.70;;;1.80;;
34134;SDS011;20410;55.578;12.968;2023-04-03T12:47:42;3.53;;;1.97;;
34134;SDS011;20410;55.578;12.968;2023-04-03T12:53:05;2.00;;;1.60;;
34134;SDS011;20410;55.578;12.968;2023-04-03T12:55:36;2.20;;;2.00;;
34134;SDS011;20410;55.578;12.968;2023-04-03T13:01:03;5.53;;;2.03;;
34134;SDS011;20410;55.578;12.968;2023-04-03T13:03:35;3.13;;;1.90;;
34134;SDS011;20410;55.578;12.968;2023-04-03T13:06:17;3.43;;;1.60;;
34134;SDS011;20410;55.578;12.968;2023-04-03T13:08:52;2.57;;;1.70;;
34134;SDS011;20410;55.578;12.968;2023-04-03T13:11:30;2.80;;;2.10;;
34134;SDS011;20410;55.578;12.968;2023-04-03T13:14:05;2.23;;;1.97;;
34134;SDS011;20410;55.578;12.968;2023-04-03T13:16:39;2.33;;;1.70;;
34134;SDS011;20410;55.578;12.968;2023-04-03T13:19:06;3.30;;;1.87;;
34134;SDS011;20410;55.578;12.968;2023-04-03T13:21:40;2.90;;;1.73;;
34134;SDS011;20410;55.578;12.968;2023-04-03T13:24:06;1.77;;;1.67;;
34134;SDS011;20410;55.578;12.968;2023-04-03T13:26:34;3.13;;;1.70;;
34134;SDS011;20410;55.578;12.968;2023-04-03T13:29:05;3.73;;;1.77;;
34134;SDS011;20410;55.578;12.968;2023-04-03T13:31:36;2.97;;;2.10;;
34134;SDS011;20410;55.578;12.968;2023-04-03T13:36:37;4.27;;;1.90;;
34134;SDS011;20410;55.578;12.968;2023-04-03T13:41:41;2.17;;;1.70;;
34134;SDS011;20410;55.578;12.968;2023-04-03T13:46:50;2.90;;;1.93;;
34134;SDS011;20410;55.578;12.968;2023-04-03T13:49:44;2.20;;;1.70;;
34134;SDS011;20410;55.578;12.968;2023-04-03T13:52:30;2.73;;;1.70;;
34134;SDS011;20410;55.578;12.968;2023-04-03T13:55:03;3.93;;;2.20;;
34134;SDS011;20410;55.578;12.968;2023-04-03T14:00:38;2.67;;;2.33;;
34134;SDS011;20410;55.578;12.968;2023-04-03T14:03:16;2.37;;;2.13;;
34134;SDS011;20410;55.578;12.968;2023-04-03T14:05:55;2.93;;;2.10;;
34134;SDS011;20410;55.578;12.968;2023-04-03T14:08:21;2.50;;;2.23;;
34134;SDS011;20410;55.578;12.968;2023-04-03T14:10:48;3.43;;;2.20;;
34134;SDS011;20410;55.578;12.968;2023-04-03T14:13:15;5.27;;;1.80;;
34134;SDS011;20410;55.578;12.968;2023-04-03T14:15:43;5.87;;;2.07;;
34134;SDS011;20410;55.578;12.968;2023-04-03T14:18:11;6.37;;;1.87;;
34134;SDS011;20410;55.578;12.968;2023-04-03T14:20:39;2.67;;;1.43;;
34134;SDS011;20410;55.578;12.968;2023-04-03T14:23:05;2.83;;;2.27;;
34134;SDS011;20410;55.578;12.968;2023-04-03T14:25:31;2.33;;;1.50;;
34134;SDS011;20410;55.578;12.968;2023-04-03T14:27:57;2.10;;;1.83;;
34134;SDS011;20410;55.578;12.968;2023-04-03T14:30:29;2.97;;;2.13;;
34134;SDS011;20410;55.578;12.968;2023-04-03T14:32:57;2.00;;;1.73;;
34134;SDS011;20410;55.578;12.968;2023-04-03T14:35:23;2.40;;;1.80;;
34134;SDS011;20410;55.578;12.968;2023-04-03T14:37:50;2.77;;;1.90;;
34134;SDS011;20410;55.578;12.968;2023-04-03T14:40:20;2.80;;;2.27;;
34134;SDS011;20410;55.578;12.968;2023-04-03T14:42:49;2.80;;;1.60;;
34134;SDS011;20410;55.578;12.968;2023-04-03T14:45:16;3.50;;;1.93;;
34134;SDS011;20410;55.578;12.968;2023-04-03T14:47:53;2.00;;;1.90;;
34134;SDS011;20410;55.578;12.968;2023-04-03T14:50:22;2.60;;;1.73;;
34134;SDS011;20410;55.578;12.968;2023-04-03T14:52:50;2.70;;;1.80;;
34134;SDS011;20410;55.578;12.968;2023-04-03T14:55:20;4.00;;;1.63;;
34134;SDS011;20410;55.578;12.968;2023-04-03T14:57:47;3.60;;;2.23;;
34134;SDS011;20410;55.578;12.968;2023-04-03T15:00:13;3.27;;;1.87;;
34134;SDS011;20410;55.578;12.968;2023-04-03T15:02:41;2.83;;;2.30;;
34134;SDS011;20410;55.578;12.968;2023-04-03T15:05:08;2.00;;;1.80;;
34134;SDS011;20410;55.578;12.968;2023-04-03T15:07:36;2.50;;;1.87;;
34134;SDS011;20410;55.578;12.968;2023-04-03T15:10:23;2.90;;;2.10;;
34134;SDS011;20410;55.578;12.968;2023-04-03T15:12:50;3.10;;;1.73;;
34134;SDS011;20410;55.578;12.968;2023-04-03T15:15:18;3.67;;;2.03;;
34134;SDS011;20410;55.578;12.968;2023-04-03T15:17:45;2.40;;;1.80;;
34134;SDS011;20410;55.578;12.968;2023-04-03T15:20:17;4.40;;;2.07;;
34134;SDS011;20410;55.578;12.968;2023-04-03T15:22:44;3.37;;;2.07;;
34134;SDS011;20410;55.578;12.968;2023-04-03T15:25:10;2.60;;;1.57;;
34134;SDS011;20410;55.578;12.968;2023-04-03T15:27:36;3.47;;;1.60;;
34134;SDS011;20410;55.578;12.968;2023-04-03T15:30:05;3.30;;;1.97;;
34134;SDS011;20410;55.578;12.968;2023-04-03T15:32:33;4.27;;;1.53;;
34134;SDS011;20410;55.578;12.968;2023-04-03T15:35:00;5.60;;;1.77;;
34134;SDS011;20410;55.578;12.968;2023-04-03T15:37:26;4.73;;;1.80;;
34134;SDS011;20410;55.578;12.968;2023-04-03T15:39:52;2.63;;;1.87;;
34134;SDS011;20410;55.578;12.968;2023-04-03T15:42:17;5.20;;;1.90;;
34134;SDS011;20410;55.578;12.968;2023-04-03T15:44:43;4.50;;;1.70;;
34134;SDS011;20410;55.578;12.968;2023-04-03T15:47:08;1.77;;;1.53;;
34134;SDS011;20410;55.578;12.968;2023-04-03T15:49:34;5.50;;;2.07;;
34134;SDS011;20410;55.578;12.968;2023-04-03T15:52:00;4.67;;;1.70;;
34134;SDS011;20410;55.578;12.968;2023-04-03T15:54:26;3.07;;;1.50;;
34134;SDS011;20410;55.578;12.968;2023-04-03T15:56:54;2.23;;;1.60;;
34134;SDS011;20410;55.578;12.968;2023-04-03T15:59:20;3.07;;;1.90;;
34134;SDS011;20410;55.578;12.968;2023-04-03T16:01:46;4.77;;;1.77;;
34134;SDS011;20410;55.578;12.968;2023-04-03T16:04:12;3.13;;;1.87;;
34134;SDS011;20410;55.578;12.968;2023-04-03T16:06:38;3.70;;;1.73;;
34134;SDS011;20410;55.578;12.968;2023-04-03T16:09:03;2.90;;;1.60;;
34134;SDS011;20410;55.578;12.968;2023-04-03T16:11:29;3.30;;;1.70;;
34134;SDS011;20410;55.578;12.968;2023-04-03T16:13:55;4.73;;;1.93;;
34134;SDS011;20410;55.578;12.968;2023-04-03T16:16:21;4.03;;;1.70;;
34134;SDS011;20410;55.578;12.968;2023-04-03T16:18:48;4.03;;;1.77;;
34134;SDS011;20410;55.578;12.968;2023-04-03T16:21:14;7.03;;;2.57;;
34134;SDS011;20410;55.578;12.968;2023-04-03T16:23:41;4.50;;;2.20;;
34134;SDS011;20410;55.578;12.968;2023-04-03T16:26:07;3.33;;;1.83;;
34134;SDS011;20410;55.578;12.968;2023-04-03T16:28:33;3.97;;;2.03;;
34134;SDS011;20410;55.578;12.968;2023-04-03T16:30:59;4.27;;;1.80;;
34134;SDS011;20410;55.578;12.968;2023-04-03T16:33:25;3.60;;;1.93;;
34134;SDS011;20410;55.578;12.968;2023-04-03T16:35:51;2.77;;;1.60;;
34134;SDS011;20410;55.578;12.968;2023-04-03T16:38:17;4.07;;;2.00;;
34134;SDS011;20410;55.578;12.968;2023-04-03T16:40:44;3.70;;;2.33;;
34134;SDS011;20410;55.578;12.968;2023-04-03T16:43:10;4.00;;;1.73;;
34134;SDS011;20410;55.578;12.968;2023-04-03T16:45:36;4.40;;;1.90;;
34134;SDS011;20410;55.578;12.968;2023-04-03T16:48:01;4.03;;;2.10;;
34134;SDS011;20410;55.578;12.968;2023-04-03T16:50:27;4.07;;;2.00;;
34134;SDS011;20410;55.578;12.968;2023-04-03T16:52:53;3.67;;;2.00;;
34134;SDS011;20410;55.578;12.968;2023-04-03T16:55:19;6.23;;;2.07;;
34134;SDS011;20410;55.578;12.968;2023-04-03T16:57:45;3.70;;;1.77;;
34134;SDS011;20410;55.578;12.968;2023-04-03T17:00:11;3.70;;;1.90;;
34134;SDS011;20410;55.578;12.968;2023-04-03T17:02:38;6.50;;;2.23;;
34134;SDS011;20410;55.578;12.968;2023-04-03T17:05:05;5.97;;;2.00;;
34134;SDS011;20410;55.578;12.968;2023-04-03T17:07:31;2.90;;;1.80;;
34134;SDS011;20410;55.578;12.968;2023-04-03T17:09:57;2.80;;;1.53;;
34134;SDS011;20410;55.578;12.968;2023-04-03T17:12:22;2.50;;;1.80;;
34134;SDS011;20410;55.578;12.968;2023-04-03T17:14:49;5.13;;;2.30;;
34134;SDS011;20410;55.578;12.968;2023-04-03T17:17:14;4.00;;;1.73;;
34134;SDS011;20410;55.578;12.968;2023-04-03T17:19:44;3.97;;;2.13;;
34134;SDS011;20410;55.578;12.968;2023-04-03T17:22:10;3.90;;;2.10;;
34134;SDS011;20410;55.578;12.968;2023-04-03T17:24:36;3.47;;;1.90;;
34134;SDS011;20410;55.578;12.968;2023-04-03T17:27:02;3.83;;;1.80;;
34134;SDS011;20410;55.578;12.968;2023-04-03T17:29:28;5.40;;;2.07;;
34134;SDS011;20410;55.578;12.968;2023-04-03T17:31:54;6.10;;;2.10;;
34134;SDS011;20410;55.578;12.968;2023-04-03T17:34:19;3.53;;;2.20;;
34134;SDS011;20410;55.578;12.968;2023-04-03T17:36:45;2.67;;;2.13;;
34134;SDS011;20410;55.578;12.968;2023-04-03T17:39:11;3.00;;;1.90;;
34134;SDS011;20410;55.578;12.968;2023-04-03T17:41:37;7.83;;;2.20;;
34134;SDS011;20410;55.578;12.968;2023-04-03T17:44:03;3.00;;;2.03;;
34134;SDS011;20410;55.578;12.968;2023-04-03T17:46:28;2.40;;;2.03;;
34134;SDS011;20410;55.578;12.968;2023-04-03T17:48:54;5.77;;;1.83;;
34134;SDS011;20410;55.578;12.968;2023-04-03T17:51:23;3.60;;;2.00;;
34134;SDS011;20410;55.578;12.968;2023-04-03T17:53:49;4.90;;;2.20;;
34134;SDS011;20410;55.578;12.968;2023-04-03T17:56:16;3.93;;;2.13;;